sensor_id;sensor_type;location;lat;lon;timestamp;pressure;altitude;pressure_sealevel;temperature;humidity
64933;BME280;51446;53.850;10.662;2022-07-06T00:00:29;102047.78;;;14.06;76.90
64933;BME280;51446;53.850;10.662;2022-07-06T00:02:55;102042.66;;;14.12;76.90
64933;BME280;51446;53.850;10.662;2022-07-06T00:05:20;102044.53;;;14.18;76.33
64933;BME280;51446;53.850;10.662;2022-07-06T00:07:45;102044.63;;;14.22;76.61
64933;BME280;51446;53.850;10.662;2022-07-06T00:10:12;102033.88;;;14.13;76.35
64933;BME280;51446;53.850;10.662;2022-07-06T00:12:37;102029.19;;;14.00;77.29
64933;BME280;51446;53.850;10.662;2022-07-06T00:15:03;102031.81;;;14.00;77.19
64933;BME280;51446;53.850;10.662;2022-07-06T00:17:28;102031.38;;;13.80;78.42
64933;BME280;51446;53.850;10.662;2022-07-06T00:19:53;102029.56;;;13.77;78.78
64933;BME280;51446;53.850;10.662;2022-07-06T00:22:18;102028.59;;;13.74;79.11
64933;BME280;51446;53.850;10.662;2022-07-06T00:24:44;102037.16;;;13.63;78.83
64933;BME280;51446;53.850;10.662;2022-07-06T00:27:09;102032.56;;;13.55;79.13
64933;BME280;51446;53.850;10.662;2022-07-06T00:29:34;102033.41;;;13.53;80.07
64933;BME280;51446;53.850;10.662;2022-07-06T00:32:00;102031.47;;;13.46;79.91
64933;BME280;51446;53.850;10.662;2022-07-06T00:34:25;102040.41;;;13.51;79.76
64933;BME280;51446;53.850;10.662;2022-07-06T00:36:50;102034.03;;;13.43;80.06
64933;BME280;51446;53.850;10.662;2022-07-06T00:39:15;102038.38;;;13.40;80.64
64933;BME280;51446;53.850;10.662;2022-07-06T00:41:43;102035.59;;;13.35;80.70
64933;BME280;51446;53.850;10.662;2022-07-06T00:44:09;102029.66;;;13.44;80.77
64933;BME280;51446;53.850;10.662;2022-07-06T00:46:35;102032.31;;;13.45;80.93
64933;BME280;51446;53.850;10.662;2022-07-06T00:49:00;102029.63;;;13.42;80.93
64933;BME280;51446;53.850;10.662;2022-07-06T00:51:30;102034.81;;;13.39;81.02
64933;BME280;51446;53.850;10.662;2022-07-06T00:53:59;102026.22;;;13.46;80.96
64933;BME280;51446;53.850;10.662;2022-07-06T00:56:26;102021.59;;;13.38;80.69
64933;BME280;51446;53.850;10.662;2022-07-06T00:58:53;102028.78;;;13.43;80.55
64933;BME280;51446;53.850;10.662;2022-07-06T01:01:19;102031.13;;;13.32;80.95
64933;BME280;51446;53.850;10.662;2022-07-06T01:03:44;102033.94;;;13.39;81.58
64933;BME280;51446;53.850;10.662;2022-07-06T01:06:09;102029.06;;;13.56;81.47
64933;BME280;51446;53.850;10.662;2022-07-06T01:08:35;102029.91;;;13.55;80.29
64933;BME280;51446;53.850;10.662;2022-07-06T01:11:00;102033.50;;;13.58;80.34
64933;BME280;51446;53.850;10.662;2022-07-06T01:13:27;102027.56;;;13.67;80.34
64933;BME280;51446;53.850;10.662;2022-07-06T01:15:52;102034.09;;;13.83;78.79
64933;BME280;51446;53.850;10.662;2022-07-06T01:18:19;102034.84;;;13.77;79.14
64933;BME280;51446;53.850;10.662;2022-07-06T01:20:44;102033.59;;;13.61;79.92
64933;BME280;51446;53.850;10.662;2022-07-06T01:23:09;102031.03;;;13.64;80.50
64933;BME280;51446;53.850;10.662;2022-07-06T01:25:35;102030.84;;;13.57;79.68
64933;BME280;51446;53.850;10.662;2022-07-06T01:28:00;102024.66;;;13.55;80.43
64933;BME280;51446;53.850;10.662;2022-07-06T01:30:25;102027.28;;;13.55;80.55
64933;BME280;51446;53.850;10.662;2022-07-06T01:32:51;102025.69;;;13.61;79.96
64933;BME280;51446;53.850;10.662;2022-07-06T01:35:16;102017.84;;;13.64;80.37
64933;BME280;51446;53.850;10.662;2022-07-06T01:37:42;102018.03;;;13.72;79.56
64933;BME280;51446;53.850;10.662;2022-07-06T01:40:09;102019.78;;;13.72;79.92
64933;BME280;51446;53.850;10.662;2022-07-06T01:42:35;102025.16;;;13.76;79.25
64933;BME280;51446;53.850;10.662;2022-07-06T01:45:01;102028.59;;;13.74;80.17
64933;BME280;51446;53.850;10.662;2022-07-06T01:47:26;102021.50;;;13.71;79.23
64933;BME280;51446;53.850;10.662;2022-07-06T01:49:51;102017.25;;;13.76;79.60
64933;BME280;51446;53.850;10.662;2022-07-06T01:52:17;102028.50;;;13.69;79.72
64933;BME280;51446;53.850;10.662;2022-07-06T01:54:42;102021.41;;;13.66;79.22
64933;BME280;51446;53.850;10.662;2022-07-06T01:57:08;102017.81;;;13.63;79.10
64933;BME280;51446;53.850;10.662;2022-07-06T01:59:33;102021.56;;;13.74;79.21
64933;BME280;51446;53.850;10.662;2022-07-06T02:01:58;102018.75;;;13.65;78.80
64933;BME280;51446;53.850;10.662;2022-07-06T02:04:24;102016.28;;;13.74;79.39
64933;BME280;51446;53.850;10.662;2022-07-06T02:06:49;102015.22;;;13.64;79.44
64933;BME280;51446;53.850;10.662;2022-07-06T02:09:14;102016.22;;;13.71;79.53
64933;BME280;51446;53.850;10.662;2022-07-06T02:11:41;102015.28;;;13.67;79.69
64933;BME280;51446;53.850;10.662;2022-07-06T02:14:06;102017.09;;;13.70;79.21
64933;BME280;51446;53.850;10.662;2022-07-06T02:16:32;102020.53;;;13.66;79.61
64933;BME280;51446;53.850;10.662;2022-07-06T02:18:57;102017.78;;;13.61;80.22
64933;BME280;51446;53.850;10.662;2022-07-06T02:21:22;102018.75;;;13.65;80.76
64933;BME280;51446;53.850;10.662;2022-07-06T02:23:47;102023.16;;;13.66;80.88
64933;BME280;51446;53.850;10.662;2022-07-06T02:26:13;102020.63;;;13.70;80.39
64933;BME280;51446;53.850;10.662;2022-07-06T02:28:38;102024.78;;;13.61;80.65
64933;BME280;51446;53.850;10.662;2022-07-06T02:31:03;102018.03;;;13.72;81.42
64933;BME280;51446;53.850;10.662;2022-07-06T02:33:29;102025.16;;;13.76;81.70
64933;BME280;51446;53.850;10.662;2022-07-06T02:35:54;102021.34;;;13.63;81.16
64933;BME280;51446;53.850;10.662;2022-07-06T02:38:19;102022.16;;;13.61;81.84
64933;BME280;51446;53.850;10.662;2022-07-06T02:40:44;102020.47;;;13.63;81.06
64933;BME280;51446;53.850;10.662;2022-07-06T02:43:10;102022.25;;;13.65;81.26
64933;BME280;51446;53.850;10.662;2022-07-06T02:45:35;102020.28;;;13.57;81.46
64933;BME280;51446;53.850;10.662;2022-07-06T02:48:00;102014.22;;;13.59;82.07
64933;BME280;51446;53.850;10.662;2022-07-06T02:50:25;102014.16;;;13.56;81.68
64933;BME280;51446;53.850;10.662;2022-07-06T02:52:51;102013.47;;;13.65;81.24
64933;BME280;51446;53.850;10.662;2022-07-06T02:55:16;102015.94;;;13.57;81.58
64933;BME280;51446;53.850;10.662;2022-07-06T02:57:42;102011.94;;;13.38;82.41
64933;BME280;51446;53.850;10.662;2022-07-06T03:00:08;102013.09;;;13.49;83.01
64933;BME280;51446;53.850;10.662;2022-07-06T03:02:34;102023.81;;;13.56;83.41
64933;BME280;51446;53.850;10.662;2022-07-06T03:05:00;102025.56;;;13.57;82.57
64933;BME280;51446;53.850;10.662;2022-07-06T03:07:25;102019.59;;;13.64;82.13
64933;BME280;51446;53.850;10.662;2022-07-06T03:09:50;102024.84;;;13.64;82.10
64933;BME280;51446;53.850;10.662;2022-07-06T03:12:16;102023.44;;;13.78;81.86
64933;BME280;51446;53.850;10.662;2022-07-06T03:14:41;102023.28;;;13.72;82.05
64933;BME280;51446;53.850;10.662;2022-07-06T03:17:07;102030.34;;;13.73;81.64
64933;BME280;51446;53.850;10.662;2022-07-06T03:19:32;102024.13;;;13.71;81.24
64933;BME280;51446;53.850;10.662;2022-07-06T03:21:57;102030.28;;;13.70;81.15
64933;BME280;51446;53.850;10.662;2022-07-06T03:24:23;102031.59;;;13.89;80.35
64933;BME280;51446;53.850;10.662;2022-07-06T03:26:48;102027.66;;;13.70;79.78
64933;BME280;51446;53.850;10.662;2022-07-06T03:29:13;102026.84;;;13.74;80.37
64933;BME280;51446;53.850;10.662;2022-07-06T03:31:39;102027.22;;;13.91;80.93
64933;BME280;51446;53.850;10.662;2022-07-06T03:34:04;102041.00;;;13.78;80.44
64933;BME280;51446;53.850;10.662;2022-07-06T03:36:29;102041.00;;;13.78;80.18
64933;BME280;51446;53.850;10.662;2022-07-06T03:38:55;102038.56;;;13.87;80.80
64933;BME280;51446;53.850;10.662;2022-07-06T03:41:20;102035.13;;;13.91;80.51
64933;BME280;51446;53.850;10.662;2022-07-06T03:43:45;102042.28;;;13.95;79.82
64933;BME280;51446;53.850;10.662;2022-07-06T03:46:10;102035.09;;;13.90;79.18
64933;BME280;51446;53.850;10.662;2022-07-06T03:48:35;102034.91;;;13.80;80.03
64933;BME280;51446;53.850;10.662;2022-07-06T03:51:01;102032.75;;;14.02;79.24
64933;BME280;51446;53.850;10.662;2022-07-06T03:53:26;102028.69;;;13.78;78.94
64933;BME280;51446;53.850;10.662;2022-07-06T03:55:52;102035.16;;;13.93;80.18
64933;BME280;51446;53.850;10.662;2022-07-06T03:58:36;102034.03;;;13.81;79.67
64933;BME280;51446;53.850;10.662;2022-07-06T04:01:01;102030.69;;;13.88;79.23
64933;BME280;51446;53.850;10.662;2022-07-06T04:03:26;102028.09;;;13.90;79.15
64933;BME280;51446;53.850;10.662;2022-07-06T04:05:52;102036.16;;;13.96;79.17
64933;BME280;51446;53.850;10.662;2022-07-06T04:08:17;102043.09;;;13.93;79.41
64933;BME280;51446;53.850;10.662;2022-07-06T04:10:43;102047.53;;;13.95;79.25
64933;BME280;51446;53.850;10.662;2022-07-06T04:13:08;102055.19;;;13.83;80.58
64933;BME280;51446;53.850;10.662;2022-07-06T04:15:33;102052.13;;;13.64;82.57
64933;BME280;51446;53.850;10.662;2022-07-06T04:17:59;102065.81;;;13.49;83.89
64933;BME280;51446;53.850;10.662;2022-07-06T04:20:24;102069.06;;;13.39;83.56
64933;BME280;51446;53.850;10.662;2022-07-06T04:22:51;102065.16;;;13.25;85.12
64933;BME280;51446;53.850;10.662;2022-07-06T04:25:17;102062.47;;;12.88;85.55
64933;BME280;51446;53.850;10.662;2022-07-06T04:27:42;102067.03;;;12.95;86.08
64933;BME280;51446;53.850;10.662;2022-07-06T04:30:08;102050.81;;;13.13;86.57
64933;BME280;51446;53.850;10.662;2022-07-06T04:32:34;102044.56;;;13.08;86.88
64933;BME280;51446;53.850;10.662;2022-07-06T04:35:00;102041.44;;;13.25;85.64
64933;BME280;51446;53.850;10.662;2022-07-06T04:37:26;102043.13;;;13.21;86.18
64933;BME280;51446;53.850;10.662;2022-07-06T04:39:51;102047.91;;;13.02;85.85
64933;BME280;51446;53.850;10.662;2022-07-06T04:42:16;102039.63;;;13.22;87.41
64933;BME280;51446;53.850;10.662;2022-07-06T04:44:41;102052.34;;;13.37;85.72
64933;BME280;51446;53.850;10.662;2022-07-06T04:47:07;102046.25;;;13.40;85.39
64933;BME280;51446;53.850;10.662;2022-07-06T04:49:32;102040.78;;;13.33;85.59
64933;BME280;51446;53.850;10.662;2022-07-06T04:51:58;102043.81;;;13.47;85.71
64933;BME280;51446;53.850;10.662;2022-07-06T04:54:23;102042.25;;;13.56;83.70
64933;BME280;51446;53.850;10.662;2022-07-06T04:56:48;102052.09;;;13.29;85.12
64933;BME280;51446;53.850;10.662;2022-07-06T04:59:14;102045.84;;;13.59;85.26
64933;BME280;51446;53.850;10.662;2022-07-06T05:01:39;102040.84;;;13.70;84.55
64933;BME280;51446;53.850;10.662;2022-07-06T05:04:06;102047.59;;;13.59;83.12
64933;BME280;51446;53.850;10.662;2022-07-06T05:06:31;102042.25;;;13.22;83.37
64933;BME280;51446;53.850;10.662;2022-07-06T05:08:56;102052.13;;;13.31;84.86
64933;BME280;51446;53.850;10.662;2022-07-06T05:11:24;102050.28;;;13.25;83.94
64933;BME280;51446;53.850;10.662;2022-07-06T05:13:49;102045.09;;;13.30;84.08
64933;BME280;51446;53.850;10.662;2022-07-06T05:16:14;102049.03;;;13.46;84.67
64933;BME280;51446;53.850;10.662;2022-07-06T05:18:40;102043.94;;;13.53;84.19
64933;BME280;51446;53.850;10.662;2022-07-06T05:21:05;102048.50;;;13.61;86.13
64933;BME280;51446;53.850;10.662;2022-07-06T05:23:30;102048.81;;;13.73;85.17
64933;BME280;51446;53.850;10.662;2022-07-06T05:25:55;102056.97;;;13.85;84.81
64933;BME280;51446;53.850;10.662;2022-07-06T05:28:21;102048.09;;;13.80;85.26
64933;BME280;51446;53.850;10.662;2022-07-06T05:30:46;102055.47;;;13.97;84.26
64933;BME280;51446;53.850;10.662;2022-07-06T05:33:11;102054.69;;;14.01;84.24
64933;BME280;51446;53.850;10.662;2022-07-06T05:35:37;102053.69;;;14.35;84.74
64933;BME280;51446;53.850;10.662;2022-07-06T05:38:02;102059.13;;;14.45;82.70
64933;BME280;51446;53.850;10.662;2022-07-06T05:40:27;102057.59;;;14.56;83.12
64933;BME280;51446;53.850;10.662;2022-07-06T05:42:53;102058.81;;;14.72;82.44
64933;BME280;51446;53.850;10.662;2022-07-06T05:45:18;102059.72;;;14.71;81.36
64933;BME280;51446;53.850;10.662;2022-07-06T05:47:43;102058.06;;;14.78;81.02
64933;BME280;51446;53.850;10.662;2022-07-06T05:50:27;102067.25;;;14.97;80.95
64933;BME280;51446;53.850;10.662;2022-07-06T05:52:58;102064.41;;;15.36;79.52
64933;BME280;51446;53.850;10.662;2022-07-06T05:55:23;102060.81;;;15.33;78.71
64933;BME280;51446;53.850;10.662;2022-07-06T05:57:49;102063.75;;;15.53;79.33
64933;BME280;51446;53.850;10.662;2022-07-06T06:00:15;102057.53;;;15.48;77.71
64933;BME280;51446;53.850;10.662;2022-07-06T06:02:42;102061.78;;;15.38;77.53
64933;BME280;51446;53.850;10.662;2022-07-06T06:05:09;102061.44;;;14.70;79.34
64933;BME280;51446;53.850;10.662;2022-07-06T06:07:35;102063.59;;;14.90;79.28
64933;BME280;51446;53.850;10.662;2022-07-06T06:10:06;102067.19;;;15.46;78.65
64933;BME280;51446;53.850;10.662;2022-07-06T06:12:32;102057.91;;;15.71;78.48
64933;BME280;51446;53.850;10.662;2022-07-06T06:14:57;102064.69;;;16.13;77.50
64933;BME280;51446;53.850;10.662;2022-07-06T06:17:23;102058.63;;;16.22;77.24
64933;BME280;51446;53.850;10.662;2022-07-06T06:19:48;102056.47;;;16.62;72.29
64933;BME280;51446;53.850;10.662;2022-07-06T06:22:14;102070.69;;;16.70;73.15
64933;BME280;51446;53.850;10.662;2022-07-06T06:24:39;102066.75;;;17.12;71.70
64933;BME280;51446;53.850;10.662;2022-07-06T06:27:04;102070.56;;;16.59;70.94
64933;BME280;51446;53.850;10.662;2022-07-06T06:29:30;102066.19;;;16.63;73.68
64933;BME280;51446;53.850;10.662;2022-07-06T06:31:55;102070.09;;;16.21;73.38
64933;BME280;51446;53.850;10.662;2022-07-06T06:34:20;102071.88;;;16.23;74.05
64933;BME280;51446;53.850;10.662;2022-07-06T06:36:46;102071.59;;;16.02;74.39
64933;BME280;51446;53.850;10.662;2022-07-06T06:39:11;102065.16;;;16.50;74.17
64933;BME280;51446;53.850;10.662;2022-07-06T06:41:36;102070.88;;;16.86;72.02
64933;BME280;51446;53.850;10.662;2022-07-06T06:44:01;102065.63;;;16.89;72.47
64933;BME280;51446;53.850;10.662;2022-07-06T06:46:27;102066.25;;;17.61;69.34
64933;BME280;51446;53.850;10.662;2022-07-06T06:48:52;102070.50;;;17.38;71.03
64933;BME280;51446;53.850;10.662;2022-07-06T06:51:17;102073.25;;;17.51;70.74
64933;BME280;51446;53.850;10.662;2022-07-06T06:53:43;102073.75;;;17.04;70.46
64933;BME280;51446;53.850;10.662;2022-07-06T06:56:08;102068.16;;;17.76;67.43
64933;BME280;51446;53.850;10.662;2022-07-06T06:58:33;102075.03;;;17.52;66.63
64933;BME280;51446;53.850;10.662;2022-07-06T07:00:59;102078.81;;;17.89;67.74
64933;BME280;51446;53.850;10.662;2022-07-06T07:03:24;102078.78;;;17.79;67.45
64933;BME280;51446;53.850;10.662;2022-07-06T07:05:49;102067.19;;;17.66;65.60
64933;BME280;51446;53.850;10.662;2022-07-06T07:08:15;102069.38;;;17.12;68.66
64933;BME280;51446;53.850;10.662;2022-07-06T07:10:40;102082.78;;;17.26;67.07
64933;BME280;51446;53.850;10.662;2022-07-06T07:13:05;102086.94;;;17.01;67.24
64933;BME280;51446;53.850;10.662;2022-07-06T07:15:30;102090.28;;;16.85;67.70
64933;BME280;51446;53.850;10.662;2022-07-06T07:17:56;102090.28;;;16.85;68.34
64933;BME280;51446;53.850;10.662;2022-07-06T07:20:21;102085.31;;;17.14;67.38
64933;BME280;51446;53.850;10.662;2022-07-06T07:22:46;102089.78;;;17.21;69.40
64933;BME280;51446;53.850;10.662;2022-07-06T07:25:12;102095.44;;;17.63;64.14
64933;BME280;51446;53.850;10.662;2022-07-06T07:27:37;102084.50;;;17.23;66.35
64933;BME280;51446;53.850;10.662;2022-07-06T07:30:02;102085.00;;;17.86;63.26
64933;BME280;51446;53.850;10.662;2022-07-06T07:32:28;102088.75;;;18.14;62.10
64933;BME280;51446;53.850;10.662;2022-07-06T07:34:54;102093.59;;;17.51;63.89
64933;BME280;51446;53.850;10.662;2022-07-06T07:37:19;102096.88;;;17.22;64.75
64933;BME280;51446;53.850;10.662;2022-07-06T07:39:44;102089.94;;;17.38;62.07
64933;BME280;51446;53.850;10.662;2022-07-06T07:42:09;102105.44;;;16.95;63.92
64933;BME280;51446;53.850;10.662;2022-07-06T07:44:35;102107.44;;;17.16;64.04
64933;BME280;51446;53.850;10.662;2022-07-06T07:47:00;102102.03;;;17.10;64.54
64933;BME280;51446;53.850;10.662;2022-07-06T07:49:25;102097.84;;;17.32;63.34
64933;BME280;51446;53.850;10.662;2022-07-06T07:51:50;102098.75;;;17.36;64.36
64933;BME280;51446;53.850;10.662;2022-07-06T07:54:16;102094.94;;;18.13;60.98
64933;BME280;51446;53.850;10.662;2022-07-06T07:56:41;102094.91;;;18.06;61.11
64933;BME280;51446;53.850;10.662;2022-07-06T07:59:07;102102.16;;;18.44;58.64
64933;BME280;51446;53.850;10.662;2022-07-06T08:01:33;102100.50;;;18.67;59.29
64933;BME280;51446;53.850;10.662;2022-07-06T08:03:58;102097.84;;;18.70;59.09
64933;BME280;51446;53.850;10.662;2022-07-06T08:06:24;102100.34;;;18.36;58.74
64933;BME280;51446;53.850;10.662;2022-07-06T08:08:49;102102.44;;;19.49;56.85
64933;BME280;51446;53.850;10.662;2022-07-06T08:11:15;102099.75;;;19.13;55.69
64933;BME280;51446;53.850;10.662;2022-07-06T08:13:40;102110.44;;;19.32;55.47
64933;BME280;51446;53.850;10.662;2022-07-06T08:16:05;102097.09;;;19.29;55.59
64933;BME280;51446;53.850;10.662;2022-07-06T08:18:31;102095.34;;;19.31;55.36
64933;BME280;51446;53.850;10.662;2022-07-06T08:20:56;102107.72;;;19.01;55.55
64933;BME280;51446;53.850;10.662;2022-07-06T08:23:22;102101.34;;;18.52;54.49
64933;BME280;51446;53.850;10.662;2022-07-06T08:25:47;102103.75;;;18.09;55.40
64933;BME280;51446;53.850;10.662;2022-07-06T08:28:12;102110.00;;;18.19;56.17
64933;BME280;51446;53.850;10.662;2022-07-06T08:30:38;102107.47;;;18.37;56.63
64933;BME280;51446;53.850;10.662;2022-07-06T08:33:03;102112.19;;;19.90;52.63
64933;BME280;51446;53.850;10.662;2022-07-06T08:35:28;102112.03;;;20.52;49.91
64933;BME280;51446;53.850;10.662;2022-07-06T08:37:54;102105.97;;;21.68;48.05
64933;BME280;51446;53.850;10.662;2022-07-06T08:40:19;102102.84;;;21.10;45.78
64933;BME280;51446;53.850;10.662;2022-07-06T08:42:45;102101.72;;;21.45;42.99
64933;BME280;51446;53.850;10.662;2022-07-06T08:45:13;102101.41;;;21.80;43.92
64933;BME280;51446;53.850;10.662;2022-07-06T08:47:41;102100.66;;;19.86;45.51
64933;BME280;51446;53.850;10.662;2022-07-06T08:50:07;102104.00;;;18.54;48.97
64933;BME280;51446;53.850;10.662;2022-07-06T08:52:33;102103.88;;;18.31;50.63
64933;BME280;51446;53.850;10.662;2022-07-06T08:54:59;102104.81;;;18.44;49.84
64933;BME280;51446;53.850;10.662;2022-07-06T08:57:25;102103.97;;;18.49;49.56
64933;BME280;51446;53.850;10.662;2022-07-06T08:59:51;102105.66;;;18.30;52.89
64933;BME280;51446;53.850;10.662;2022-07-06T09:02:16;102110.22;;;18.61;52.53
64933;BME280;51446;53.850;10.662;2022-07-06T09:04:43;102103.31;;;19.35;51.56
64933;BME280;51446;53.850;10.662;2022-07-06T09:07:08;102115.69;;;19.07;49.19
64933;BME280;51446;53.850;10.662;2022-07-06T09:09:35;102105.09;;;19.92;50.74
64933;BME280;51446;53.850;10.662;2022-07-06T09:12:02;102104.69;;;20.97;48.14
64933;BME280;51446;53.850;10.662;2022-07-06T09:14:27;102103.31;;;19.74;50.37
64933;BME280;51446;53.850;10.662;2022-07-06T09:17:05;102105.63;;;20.96;49.25
64933;BME280;51446;53.850;10.662;2022-07-06T09:19:31;102112.13;;;20.28;48.80
64933;BME280;51446;53.850;10.662;2022-07-06T09:21:57;102113.94;;;19.41;50.27
64933;BME280;51446;53.850;10.662;2022-07-06T09:24:22;102115.69;;;18.93;51.02
64933;BME280;51446;53.850;10.662;2022-07-06T09:26:48;102119.22;;;18.92;51.67
64933;BME280;51446;53.850;10.662;2022-07-06T09:29:13;102118.34;;;19.09;51.67
64933;BME280;51446;53.850;10.662;2022-07-06T09:31:39;102120.06;;;18.88;53.59
64933;BME280;51446;53.850;10.662;2022-07-06T09:34:06;102124.56;;;19.11;51.05
64933;BME280;51446;53.850;10.662;2022-07-06T09:36:44;102118.25;;;18.84;52.46
64933;BME280;51446;53.850;10.662;2022-07-06T09:39:24;102117.28;;;18.57;52.39
64933;BME280;51446;53.850;10.662;2022-07-06T09:41:55;102120.50;;;17.99;54.56
64933;BME280;51446;53.850;10.662;2022-07-06T09:46:56;102125.56;;;17.66;56.71
64933;BME280;51446;53.850;10.662;2022-07-06T09:49:22;102133.53;;;17.71;57.42
64933;BME280;51446;53.850;10.662;2022-07-06T09:51:49;102126.25;;;17.47;57.32
64933;BME280;51446;53.850;10.662;2022-07-06T09:54:15;102135.19;;;17.54;57.05
64933;BME280;51446;53.850;10.662;2022-07-06T09:56:43;102140.22;;;17.26;56.88
64933;BME280;51446;53.850;10.662;2022-07-06T09:59:14;102139.75;;;16.86;59.01
64933;BME280;51446;53.850;10.662;2022-07-06T10:01:41;102144.50;;;17.11;59.43
64933;BME280;51446;53.850;10.662;2022-07-06T10:04:12;102150.53;;;16.99;61.14
64933;BME280;51446;53.850;10.662;2022-07-06T10:06:39;102153.41;;;16.47;65.00
64933;BME280;51446;53.850;10.662;2022-07-06T10:09:07;102149.63;;;16.30;66.99
64933;BME280;51446;53.850;10.662;2022-07-06T10:11:39;102148.78;;;16.31;66.98
64933;BME280;51446;53.850;10.662;2022-07-06T10:14:05;102154.44;;;15.96;69.46
64933;BME280;51446;53.850;10.662;2022-07-06T10:16:31;102160.66;;;16.01;69.94
64933;BME280;51446;53.850;10.662;2022-07-06T10:19:01;102157.09;;;15.98;68.80
64933;BME280;51446;53.850;10.662;2022-07-06T10:21:27;102147.19;;;17.16;68.11
64933;BME280;51446;53.850;10.662;2022-07-06T10:23:53;102137.78;;;17.49;63.21
64933;BME280;51446;53.850;10.662;2022-07-06T10:26:20;102132.50;;;18.87;61.01
64933;BME280;51446;53.850;10.662;2022-07-06T10:28:46;102129.88;;;20.34;54.76
64933;BME280;51446;53.850;10.662;2022-07-06T10:31:14;102125.38;;;20.39;52.59
64933;BME280;51446;53.850;10.662;2022-07-06T10:33:41;102117.28;;;20.75;51.36
64933;BME280;51446;53.850;10.662;2022-07-06T10:36:07;102115.13;;;21.34;49.24
64933;BME280;51446;53.850;10.662;2022-07-06T10:38:34;102115.28;;;21.14;48.35
64933;BME280;51446;53.850;10.662;2022-07-06T10:41:05;102129.00;;;20.20;48.67
64933;BME280;51446;53.850;10.662;2022-07-06T10:43:58;102114.91;;;21.63;46.80
64933;BME280;51446;53.850;10.662;2022-07-06T10:46:39;102116.69;;;22.53;45.42
64933;BME280;51446;53.850;10.662;2022-07-06T10:49:14;102110.22;;;20.60;46.36
64933;BME280;51446;53.850;10.662;2022-07-06T10:51:40;102113.22;;;21.52;46.73
64933;BME280;51446;53.850;10.662;2022-07-06T10:54:06;102108.25;;;21.02;45.90
64933;BME280;51446;53.850;10.662;2022-07-06T10:56:40;102102.06;;;20.94;46.52
64933;BME280;51446;53.850;10.662;2022-07-06T10:59:10;102103.59;;;21.27;46.31
64933;BME280;51446;53.850;10.662;2022-07-06T11:01:36;102110.38;;;20.17;49.31
64933;BME280;51446;53.850;10.662;2022-07-06T11:06:28;102097.81;;;20.56;47.75
64933;BME280;51446;53.850;10.662;2022-07-06T11:09:07;102100.28;;;20.96;48.09
64933;BME280;51446;53.850;10.662;2022-07-06T11:14:15;102096.22;;;19.88;50.16
64933;BME280;51446;53.850;10.662;2022-07-06T11:24:31;102095.06;;;20.65;49.49
64933;BME280;51446;53.850;10.662;2022-07-06T11:26:58;102091.31;;;21.09;47.18
64933;BME280;51446;53.850;10.662;2022-07-06T11:29:26;102089.09;;;20.04;47.86
64933;BME280;51446;53.850;10.662;2022-07-06T11:31:54;102084.25;;;21.01;45.88
64933;BME280;51446;53.850;10.662;2022-07-06T11:34:21;102078.38;;;21.70;44.26
64933;BME280;51446;53.850;10.662;2022-07-06T11:36:47;102070.19;;;21.87;44.60
64933;BME280;51446;53.850;10.662;2022-07-06T11:39:14;102071.53;;;22.25;43.13
64933;BME280;51446;53.850;10.662;2022-07-06T11:41:39;102075.72;;;21.67;44.85
64933;BME280;51446;53.850;10.662;2022-07-06T11:44:05;102067.97;;;21.38;45.71
64933;BME280;51446;53.850;10.662;2022-07-06T11:46:32;102072.06;;;22.57;45.10
64933;BME280;51446;53.850;10.662;2022-07-06T11:49:01;102057.53;;;22.76;43.42
64933;BME280;51446;53.850;10.662;2022-07-06T11:51:28;102067.09;;;21.34;44.32
64933;BME280;51446;53.850;10.662;2022-07-06T11:53:56;102068.13;;;21.19;45.99
64933;BME280;51446;53.850;10.662;2022-07-06T11:56:23;102079.25;;;20.34;48.01
64933;BME280;51446;53.850;10.662;2022-07-06T11:58:51;102082.03;;;19.18;49.36
64933;BME280;51446;53.850;10.662;2022-07-06T12:01:17;102071.41;;;19.57;49.31
64933;BME280;51446;53.850;10.662;2022-07-06T12:03:44;102071.41;;;19.57;48.50
64933;BME280;51446;53.850;10.662;2022-07-06T12:06:24;102070.50;;;19.87;48.39
64933;BME280;51446;53.850;10.662;2022-07-06T12:08:52;102066.75;;;20.49;48.63
64933;BME280;51446;53.850;10.662;2022-07-06T12:11:25;102057.06;;;20.27;49.52
64933;BME280;51446;53.850;10.662;2022-07-06T12:13:52;102065.72;;;20.73;48.57
64933;BME280;51446;53.850;10.662;2022-07-06T12:16:18;102066.84;;;20.27;48.15
64933;BME280;51446;53.850;10.662;2022-07-06T12:18:46;102061.63;;;19.90;48.53
64933;BME280;51446;53.850;10.662;2022-07-06T12:21:15;102065.16;;;19.97;49.03
64933;BME280;51446;53.850;10.662;2022-07-06T12:23:45;102076.72;;;19.83;49.85
64933;BME280;51446;53.850;10.662;2022-07-06T12:26:12;102063.41;;;19.21;51.30
64933;BME280;51446;53.850;10.662;2022-07-06T12:28:39;102057.19;;;19.50;49.92
64933;BME280;51446;53.850;10.662;2022-07-06T12:31:04;102058.09;;;19.60;49.83
64933;BME280;51446;53.850;10.662;2022-07-06T12:33:30;102059.84;;;18.99;51.48
64933;BME280;51446;53.850;10.662;2022-07-06T12:35:56;102059.00;;;19.23;52.08
64933;BME280;51446;53.850;10.662;2022-07-06T12:38:27;102054.56;;;19.35;50.21
64933;BME280;51446;53.850;10.662;2022-07-06T12:40:55;102056.31;;;19.08;50.67
64933;BME280;51446;53.850;10.662;2022-07-06T12:43:36;102055.31;;;18.61;51.75
64933;BME280;51446;53.850;10.662;2022-07-06T12:46:30;102057.13;;;18.79;50.98
64933;BME280;51446;53.850;10.662;2022-07-06T12:48:57;102051.00;;;19.14;49.84
64933;BME280;51446;53.850;10.662;2022-07-06T12:51:23;102051.88;;;18.90;50.07